Time;durP1;ratioP1;P1;durP2;ratioP2;P2;SDS_P1;SDS_P2;PMS_P1;PMS_P2;Temp;Humidity;BMP_temperature;BMP_pressure;BME280_temperature;BME280_humidity;BME280_pressure;Samples;Min_cycle;Max_cycle;Signal;HPM_P1;HPM_P2
2022/02/02 00:00:24;;;;;;;11.70;6.97;;;;;;;3.69;65.14;97737.78;4971003;28;20053;-74
2022/02/02 00:02:55;;;;;;;13.95;6.85;;;;;;;3.76;65.11;97738.09;4969711;28;20504;-73
2022/02/02 00:05:27;;;;;;;13.63;7.78;;;;;;;3.76;65.11;97730.25;4973277;28;20086;-71
2022/02/02 00:08:00;;;;;;;15.15;7.45;;;;;;;3.82;65.02;97737.59;4968328;28;20046;-71
2022/02/02 00:10:51;;;;;;;14.30;7.45;;;;;;;3.91;64.92;97731.56;4969849;28;20054;-69
2022/02/02 00:13:32;;;;;;;12.05;6.82;;;;;;;3.91;64.69;97728.13;4967932;28;20047;-71
2022/02/02 00:16:08;;;;;;;13.00;7.60;;;;;;;3.79;65.25;97720.38;4969647;28;20137;-72
2022/02/02 00:18:48;;;;;;;8.50;6.20;;;;;;;3.77;65.27;97737.13;4950972;28;20051;-69
2022/02/02 00:21:22;;;;;;;11.60;8.00;;;;;;;3.77;65.20;97724.91;4950868;28;20408;-73
2022/02/02 00:23:54;;;;;;;12.38;6.28;;;;;;;3.71;65.48;97728.06;5006086;28;20053;-74
2022/02/02 00:26:26;;;;;;;8.10;5.72;;;;;;;3.69;65.58;97729.97;5048104;28;20052;-72
2022/02/02 00:28:58;;;;;;;20.90;8.60;;;;;;;3.66;65.51;97730.22;5047378;28;20774;-73
2022/02/02 00:31:31;;;;;;;17.83;7.50;;;;;;;3.60;65.57;97718.50;5048882;28;20168;-73
2022/02/02 00:34:02;;;;;;;12.85;6.13;;;;;;;3.59;65.70;97719.47;5047682;28;20469;-70
2022/02/02 00:36:36;;;;;;;11.52;5.88;;;;;;;3.59;65.68;97724.69;5048016;28;20481;-72
2022/02/02 00:39:04;;;;;;;12.45;6.88;;;;;;;3.59;65.71;97724.69;5046277;28;20462;-74
2022/02/02 00:41:31;;;;;;;10.25;5.10;;;;;;;3.58;65.76;97728.25;5047997;28;20087;-73
2022/02/02 00:44:00;;;;;;;15.27;11.00;;;;;;;3.51;65.95;97727.13;5045919;28;20052;-70
2022/02/02 00:46:29;;;;;;;20.50;10.57;;;;;;;3.53;65.90;97729.59;5046225;28;20091;-70
2022/02/02 00:49:01;;;;;;;14.55;8.25;;;;;;;3.57;65.83;97728.38;5047457;28;20053;-69
2022/02/02 00:51:36;;;;;;;15.23;8.85;;;;;;;3.56;65.91;97721.50;5045941;28;20521;-70
2022/02/02 00:54:03;;;;;;;11.85;6.68;;;;;;;3.59;65.75;97722.06;5047393;28;20102;-74
2022/02/02 00:56:30;;;;;;;8.45;5.45;;;;;;;3.64;65.70;97729.53;5047211;28;20084;-76
2022/02/02 00:58:57;;;;;;;13.85;8.02;;;;;;;3.70;65.68;97728.19;5047140;28;20055;-71
2022/02/02 01:01:24;;;;;;;13.10;7.53;;;;;;;3.77;65.56;97726.69;5047997;28;20055;-74
2022/02/02 01:03:52;;;;;;;10.05;7.25;;;;;;;3.84;65.74;97725.22;5047083;28;20055;-75
2022/02/02 01:06:21;;;;;;;20.77;9.90;;;;;;;3.90;65.45;97719.47;5046778;28;20665;-71
2022/02/02 01:09:08;;;;;;;18.95;8.82;;;;;;;3.93;65.51;97721.81;5044795;28;20099;-70
2022/02/02 01:12:05;;;;;;;16.40;9.93;;;;;;;3.99;65.62;97718.66;5044387;28;20056;-70
2022/02/02 01:20:28;;;;;;;0.10;0.10;;;;;;;4.21;65.50;97715.03;5046746;28;20148;-72
2022/02/02 01:28:24;;;;;;;0.10;0.10;;;;;;;4.37;65.52;97719.72;5045804;28;20083;-72
2022/02/02 01:30:52;;;;;;;0.10;0.10;;;;;;;4.38;65.55;97721.41;5045602;28;20080;-68
2022/02/02 01:33:20;;;;;;;0.98;0.98;;;;;;;4.44;65.71;97706.13;5045344;28;20044;-71
2022/02/02 01:35:49;;;;;;;0.10;0.10;;;;;;;4.46;65.70;97709.44;5045688;28;20056;-73
2022/02/02 01:38:16;;;;;;;0.10;0.10;;;;;;;4.50;65.77;97708.19;5045001;28;20548;-69
2022/02/02 01:40:48;;;;;;;0.13;0.13;;;;;;;4.54;65.74;97705.19;5045890;28;20071;-70
2022/02/02 01:43:21;;;;;;;0.20;0.20;;;;;;;4.59;65.71;97712.63;5055832;28;20076;-73
2022/02/02 01:45:52;;;;;;;0.10;0.10;;;;;;;4.63;65.80;97716.63;5070149;28;20029;-72
2022/02/02 01:48:29;;;;;;;0.00;0.00;;;;;;;4.67;65.91;97717.19;5069953;28;20045;-68
2022/02/02 01:51:29;;;;;;;0.10;0.10;;;;;;;4.71;65.85;97718.56;5069628;28;20068;-69
2022/02/02 01:54:17;;;;;;;0.15;0.15;;;;;;;4.77;65.76;97715.38;5068874;28;20128;-70
2022/02/02 01:56:47;;;;;;;0.10;0.10;;;;;;;4.80;66.05;97730.81;5071669;28;20057;-76
2022/02/02 01:59:28;;;;;;;0.10;0.10;;;;;;;4.85;66.06;97717.34;5073785;28;20063;-73
2022/02/02 02:01:55;;;;;;;0.10;0.10;;;;;;;4.89;65.87;97722.13;5065185;28;20064;-68
2022/02/02 02:04:26;;;;;;;0.10;0.10;;;;;;;4.92;66.14;97715.81;5070246;28;20151;-72
2022/02/02 02:06:55;;;;;;;0.10;0.10;;;;;;;4.97;66.06;97716.22;5050552;28;20067;-68
2022/02/02 02:09:25;;;;;;;0.10;0.10;;;;;;;4.97;66.23;97726.69;5046927;28;20496;-72
2022/02/02 02:11:57;;;;;;;0.10;0.10;;;;;;;5.00;66.31;97729.00;5048985;28;20045;-71
2022/02/02 02:14:41;;;;;;;0.08;0.08;;;;;;;5.01;66.48;97717.59;5047765;28;20440;-70
2022/02/02 02:17:08;;;;;;;0.32;0.32;;;;;;;5.05;66.52;97723.38;5048277;28;20714;-69
2022/02/02 02:19:39;;;;;;;0.10;0.10;;;;;;;5.10;66.57;97727.22;5047735;28;20494;-69
2022/02/02 02:22:11;;;;;;;0.10;0.10;;;;;;;5.16;66.54;97716.19;5047645;28;20037;-70
2022/02/02 02:24:41;;;;;;;0.10;0.10;;;;;;;5.19;66.54;97722.16;5048405;28;20487;-70
2022/02/02 02:27:11;;;;;;;0.00;0.00;;;;;;;5.24;66.42;97719.91;5028678;28;20059;-73
2022/02/02 02:29:57;;;;;;;0.10;0.10;;;;;;;5.28;66.33;97716.88;5028092;28;20516;-68
2022/02/02 02:32:40;;;;;;;0.32;0.32;;;;;;;5.30;66.04;97714.94;5034094;28;20080;-69
2022/02/02 02:35:31;;;;;;;0.20;0.20;;;;;;;5.28;66.28;97713.44;5029001;28;20489;-69
2022/02/02 02:57:14;;;;;;;2.83;0.73;;;;;;;5.38;66.67;97718.66;4985843;28;20125;-72
2022/02/02 02:59:47;;;;;;;0.17;0.17;;;;;;;5.34;66.87;97729.41;4985721;28;20531;-73
2022/02/02 03:03:01;;;;;;;0.10;0.10;;;;;;;5.35;66.90;97719.78;4986249;28;20043;-71
2022/02/02 03:14:25;;;;;;;0.25;0.25;;;;;;;5.42;66.83;97725.25;4985672;28;20108;-69
2022/02/02 03:30:40;;;;;;;0.00;0.00;;;;;;;5.46;66.84;97737.13;5006019;28;20073;-75
2022/02/02 03:50:07;;;;;;;0.52;0.52;;;;;;;5.58;67.03;97749.06;4965473;28;20061;-70
2022/02/02 03:55:32;;;;;;;0.10;0.10;;;;;;;5.63;66.87;97738.97;4908516;29;20063;-71
2022/02/02 03:58:14;;;;;;;0.10;0.10;;;;;;;5.64;66.90;97750.31;4908472;29;20055;-71
2022/02/02 04:00:56;;;;;;;0.10;0.10;;;;;;;5.69;66.85;97745.44;4908254;29;20050;-70
2022/02/02 04:03:46;;;;;;;0.10;0.10;;;;;;;5.69;66.94;97742.81;4909536;29;20485;-71
2022/02/02 04:06:19;;;;;;;0.00;0.00;;;;;;;5.75;66.80;97750.13;4909150;29;20509;-70
2022/02/02 04:08:47;;;;;;;0.10;0.10;;;;;;;5.73;67.01;97759.94;4907777;29;20048;-70
2022/02/02 04:11:19;;;;;;;0.10;0.10;;;;;;;5.73;66.96;97763.38;4977495;28;20058;-73
2022/02/02 04:55:28;;;;;;;0.00;0.00;;;;;;;5.83;67.27;97772.97;4850630;29;20053;-70
2022/02/02 05:01:25;;;;;;;0.10;0.10;;;;;;;5.86;67.06;97767.47;4868693;29;20061;-70
2022/02/02 05:04:01;;;;;;;0.10;0.10;;;;;;;5.88;67.14;97778.63;4869158;29;20253;-72
2022/02/02 05:06:35;;;;;;;0.30;0.30;;;;;;;5.85;67.08;97786.75;4869544;29;20131;-72
2022/02/02 05:09:16;;;;;;;0.10;0.10;;;;;;;5.81;67.28;97788.03;4866791;29;20056;-70
2022/02/02 05:17:26;;;;;;;0.22;0.22;;;;;;;5.78;67.29;97793.53;4784980;29;20538;-71
2022/02/02 05:20:23;;;;;;;0.10;0.10;;;;;;;5.78;67.24;97799.63;4811950;29;20081;-68
2022/02/02 05:53:22;;;;;;;1.55;1.38;;;;;;;5.72;67.53;97773.97;4909041;29;20115;-72
2022/02/02 05:55:50;;;;;;;0.10;0.10;;;;;;;5.71;67.77;97782.81;4957437;28;20134;-71
2022/02/02 05:58:26;;;;;;;0.20;0.20;;;;;;;5.77;67.64;97791.91;4959894;28;20348;-76
2022/02/02 06:00:55;;;;;;;0.10;0.10;;;;;;;5.82;67.56;97787.88;4963656;28;20506;-76
2022/02/02 06:03:28;;;;;;;0.10;0.10;;;;;;;5.80;67.64;97781.97;4962140;28;20057;-74
2022/02/02 06:05:56;;;;;;;0.30;0.30;;;;;;;5.79;67.62;97789.97;4964220;28;20057;-77
2022/02/02 06:08:25;;;;;;;1.52;1.50;;;;;;;5.81;67.73;97791.47;4964325;28;20151;-73
2022/02/02 06:10:57;;;;;;;0.50;0.50;;;;;;;5.80;67.50;97789.81;4963939;28;20085;-69
2022/02/02 06:13:38;;;;;;;0.10;0.10;;;;;;;5.79;67.63;97810.91;4984110;28;20045;-71
2022/02/02 06:16:07;;;;;;;0.55;0.55;;;;;;;5.81;67.57;97812.41;5025493;28;20099;-73
2022/02/02 06:18:35;;;;;;;23.00;5.15;;;;;;;5.81;67.50;97806.34;5024306;28;20053;-75
2022/02/02 06:21:06;;;;;;;1.27;1.27;;;;;;;5.78;67.80;97831.06;5024571;28;20142;-75
2022/02/02 06:23:37;;;;;;;2.75;2.53;;;;;;;5.82;67.66;97827.19;5028075;28;20088;-71
2022/02/02 06:26:06;;;;;;;0.10;0.10;;;;;;;5.80;67.45;97836.13;5047166;28;20136;-72
2022/02/02 06:28:36;;;;;;;0.10;0.10;;;;;;;5.85;67.44;97837.38;5042179;28;20045;-68
2022/02/02 06:31:05;;;;;;;0.10;0.10;;;;;;;5.88;67.46;97842.31;5042174;28;20041;-71
2022/02/02 06:33:34;;;;;;;0.10;0.10;;;;;;;5.88;67.32;97823.97;5043856;28;20463;-69
2022/02/02 06:36:03;;;;;;;0.10;0.10;;;;;;;5.85;67.58;97831.28;5044573;28;20049;-70
2022/02/02 06:38:31;;;;;;;0.20;0.20;;;;;;;5.84;67.46;97835.72;5042462;28;20055;-71
2022/02/02 06:40:59;;;;;;;0.13;0.13;;;;;;;5.84;67.60;97846.19;5043849;28;20049;-70
2022/02/02 06:43:28;;;;;;;0.10;0.10;;;;;;;5.83;67.20;97855.00;5042636;28;20051;-69
2022/02/02 06:45:59;;;;;;;1.95;0.80;;;;;;;5.82;67.60;97853.38;5044056;28;20044;-72
2022/02/02 06:48:28;;;;;;;0.15;0.15;;;;;;;5.82;67.41;97856.00;5056395;28;20195;-70
2022/02/02 06:51:02;;;;;;;0.10;0.10;;;;;;;5.83;67.48;97859.44;5062140;28;20080;-70
2022/02/02 06:53:38;;;;;;;0.10;0.10;;;;;;;5.78;67.46;97857.25;5063089;28;20048;-69
2022/02/02 06:56:16;;;;;;;0.10;0.10;;;;;;;5.81;67.50;97864.81;5070609;28;20049;-70
2022/02/02 06:59:05;;;;;;;0.10;0.10;;;;;;;5.83;67.47;97865.47;5067729;28;20788;-69
2022/02/02 07:01:46;;;;;;;0.10;0.10;;;;;;;5.83;67.34;97859.44;5066702;28;20605;-72
2022/02/02 07:04:32;;;;;;;0.00;0.00;;;;;;;5.81;67.59;97870.03;5063867;28;20095;-73
2022/02/02 07:07:14;;;;;;;0.10;0.10;;;;;;;5.85;67.56;97858.34;5063824;28;20065;-71
2022/02/02 07:10:00;;;;;;;0.10;0.10;;;;;;;5.91;67.56;97865.63;5061738;28;20049;-77
2022/02/02 07:12:35;;;;;;;;;;;;;;;6.11;67.01;97865.63;5063800;28;20048;-71
2022/02/02 07:15:18;;;;;;;0.10;0.10;;;;;;;5.93;67.04;97861.06;5063746;28;20326;-77
2022/02/02 07:17:56;;;;;;;0.10;0.10;;;;;;;5.96;67.36;97867.03;5063277;28;20299;-69
2022/02/02 07:20:33;;;;;;;0.00;0.00;;;;;;;5.94;67.23;97867.97;5064439;28;20048;-75
2022/02/02 07:26:15;;;;;;;0.20;0.20;;;;;;;5.99;66.91;97858.88;5042127;28;20053;-75
2022/02/02 07:28:54;;;;;;;0.35;0.35;;;;;;;5.94;67.11;97867.97;5042090;28;20049;-76
2022/02/02 07:31:37;;;;;;;0.10;0.10;;;;;;;5.93;67.06;97868.94;5042368;28;20045;-72
2022/02/02 07:34:20;;;;;;;0.25;0.25;;;;;;;5.93;67.14;97876.78;5042680;28;20041;-74
2022/02/02 07:36:53;;;;;;;0.10;0.10;;;;;;;5.91;67.00;97865.63;5042962;28;20057;-74
2022/02/02 07:39:21;;;;;;;0.10;0.10;;;;;;;5.89;67.27;97880.66;5042398;28;20081;-73
2022/02/02 07:41:48;;;;;;;0.10;0.10;;;;;;;5.91;67.20;97877.91;5043649;28;20087;-74
2022/02/02 07:44:19;;;;;;;0.10;0.10;;;;;;;5.94;67.19;97867.97;5045086;28;20104;-78
2022/02/02 07:46:48;;;;;;;0.45;0.45;;;;;;;5.94;67.09;97883.69;5041302;28;20049;-72
2022/02/02 07:49:21;;;;;;;0.10;0.10;;;;;;;6.00;66.81;97884.94;5042142;28;20064;-78
2022/02/02 07:51:51;;;;;;;0.10;0.10;;;;;;;6.02;67.12;97898.72;5041869;28;20045;-74
2022/02/02 07:54:22;;;;;;;9.02;6.05;;;;;;;5.98;67.23;97883.41;5042516;28;20057;-76
2022/02/02 07:56:50;;;;;;;0.10;0.10;;;;;;;6.01;67.04;97889.22;5038276;28;20436;-71
2022/02/02 07:59:24;;;;;;;2.60;1.98;;;;;;;6.00;67.17;97889.38;5039490;28;20131;-76
2022/02/02 08:01:53;;;;;;;0.95;0.95;;;;;;;6.05;66.99;97901.09;5041102;28;20176;-72
2022/02/02 08:04:27;;;;;;;1.75;1.60;;;;;;;6.03;67.15;97881.22;5044694;28;20586;-74
2022/02/02 08:06:55;;;;;;;0.10;0.10;;;;;;;6.09;67.04;97896.38;5043393;28;20053;-73
2022/02/02 08:09:33;;;;;;;1.42;1.38;;;;;;;6.11;66.87;97902.31;5043086;28;20048;-75
2022/02/02 08:12:02;;;;;;;0.20;0.20;;;;;;;6.15;66.72;97908.91;5045113;28;20045;-72
2022/02/02 08:14:31;;;;;;;4.75;3.25;;;;;;;6.10;66.71;97906.72;5046193;28;20080;-70
2022/02/02 08:16:58;;;;;;;1.02;1.02;;;;;;;6.06;66.76;97913.19;5050479;28;20049;-75
2022/02/02 08:19:27;;;;;;;7.80;2.40;;;;;;;6.00;66.89;97919.00;5047982;28;20073;-74
2022/02/02 08:21:54;;;;;;;8.68;3.72;;;;;;;5.92;67.15;97917.06;5051177;28;20083;-78
2022/02/02 08:24:22;;;;;;;4.95;2.30;;;;;;;5.91;67.31;97915.41;5049447;28;20083;-68
2022/02/02 08:26:49;;;;;;;0.50;0.50;;;;;;;5.97;67.45;97900.13;5053090;28;20053;-68
2022/02/02 08:29:17;;;;;;;0.20;0.20;;;;;;;5.99;67.03;97919.16;5053487;28;20167;-75
2022/02/02 08:31:44;;;;;;;1.67;1.13;;;;;;;6.00;67.11;97920.81;5056203;28;20109;-77
2022/02/02 08:34:11;;;;;;;0.10;0.10;;;;;;;6.03;67.16;97944.09;5050693;28;20120;-69
2022/02/02 08:36:41;;;;;;;8.23;5.45;;;;;;;5.97;67.29;97931.56;5050559;28;20053;-76
2022/02/02 08:39:27;;;;;;;0.80;0.80;;;;;;;6.09;67.36;97941.75;5046910;28;20087;-77
2022/02/02 08:41:59;;;;;;;19.30;9.10;;;;;;;6.03;67.79;97929.22;5045677;28;20069;-73
2022/02/02 08:44:27;;;;;;;10.43;5.15;;;;;;;6.01;68.04;97951.28;5045591;28;20302;-71
2022/02/02 08:46:59;;;;;;;1.13;1.13;;;;;;;6.05;67.45;97963.97;5041279;28;20049;-69
2022/02/02 08:49:28;;;;;;;1.08;1.08;;;;;;;6.06;67.26;97978.72;5041133;28;20049;-69
2022/02/02 08:51:56;;;;;;;17.38;7.00;;;;;;;5.94;67.99;97980.63;5039170;28;20111;-68
2022/02/02 08:54:44;;;;;;;17.10;11.48;;;;;;;5.94;67.82;97978.00;5039270;28;20099;-69
2022/02/02 08:57:39;;;;;;;0.10;0.10;;;;;;;6.12;67.64;97987.81;5037373;28;20037;-70
2022/02/02 09:00:11;;;;;;;0.20;0.20;;;;;;;6.16;67.48;97988.38;5038409;28;20562;-68
2022/02/02 09:02:41;;;;;;;13.68;6.72;;;;;;;6.06;67.69;97994.44;5024173;28;20048;-71
2022/02/02 09:05:22;;;;;;;19.25;11.45;;;;;;;5.96;68.19;97977.06;5041546;28;20049;-68
2022/02/02 09:07:52;;;;;;;27.77;11.32;;;;;;;5.93;68.02;97989.44;5042604;28;20106;-77
2022/02/02 09:10:25;;;;;;;13.55;7.22;;;;;;;5.91;68.01;98001.84;5045388;28;20052;-72
2022/02/02 09:24:07;;;;;;;10.73;7.53;;;;;;;5.74;66.10;98026.94;5046559;28;20052;-71
2022/02/02 09:34:50;;;;;;;8.32;6.10;;;;;;;5.51;66.36;98049.06;4995705;28;20123;-70
2022/02/02 09:37:17;;;;;;;16.67;10.13;;;;;;;5.53;65.96;98037.50;4993374;28;20042;-70
2022/02/02 09:39:54;;;;;;;12.65;7.88;;;;;;;5.41;65.75;98054.28;4992969;28;20098;-72
2022/02/02 09:42:22;;;;;;;18.30;10.95;;;;;;;5.41;66.11;98054.28;4992597;28;20695;-73
2022/02/02 09:44:55;;;;;;;10.48;7.43;;;;;;;5.44;66.46;98061.88;4992922;28;20050;-73
2022/02/02 09:47:27;;;;;;;12.85;9.73;;;;;;;5.46;66.01;98074.84;4990732;28;20566;-71
2022/02/02 09:50:00;;;;;;;22.08;14.63;;;;;;;5.41;66.12;98075.22;4986199;28;20526;-73
2022/02/02 09:52:37;;;;;;;12.27;6.97;;;;;;;5.37;65.87;98079.06;4985781;28;20073;-79
2022/02/02 09:55:11;;;;;;;25.77;14.48;;;;;;;5.43;66.09;98094.25;4982846;28;20081;-69
2022/02/02 10:00:22;;;;;;;18.42;12.63;;;;;;;5.48;65.50;98107.75;4984418;28;20134;-71
2022/02/02 10:05:45;;;;;;;19.38;14.05;;;;;;;5.42;64.79;98112.69;4981063;28;20134;-68
2022/02/02 10:11:03;;;;;;;18.48;15.38;;;;;;;5.43;64.58;98115.19;4988803;28;20138;-82
2022/02/02 10:14:02;;;;;;;16.33;13.48;;;;;;;5.36;64.35;98114.88;5049005;28;20451;-70
2022/02/02 10:16:29;;;;;;;21.23;16.55;;;;;;;5.39;64.52;98118.22;5047603;28;20041;-70
2022/02/02 10:19:15;;;;;;;16.88;14.02;;;;;;;5.33;64.30;98109.06;5045902;28;20112;-72
2022/02/02 10:21:43;;;;;;;12.18;8.60;;;;;;;5.31;64.13;98103.13;5049320;28;20049;-75
2022/02/02 10:24:10;;;;;;;9.90;8.88;;;;;;;5.22;64.32;98111.78;5047465;28;20051;-79
2022/02/02 10:26:46;;;;;;;9.80;8.50;;;;;;;5.24;64.37;98118.56;5047770;28;20144;-73
2022/02/02 10:29:15;;;;;;;12.90;10.40;;;;;;;5.25;64.24;98117.56;5044263;28;20728;-79
2022/02/02 10:31:46;;;;;;;11.93;9.48;;;;;;;5.17;64.16;98123.47;5046307;28;20045;-77
2022/02/02 10:34:16;;;;;;;12.98;9.73;;;;;;;5.15;64.17;98130.63;5045770;28;20091;-71
2022/02/02 10:36:43;;;;;;;15.48;12.57;;;;;;;5.18;64.34;98132.13;5048163;28;20053;-77
2022/02/02 10:39:14;;;;;;;11.25;9.05;;;;;;;5.09;63.80;98138.16;5045368;28;20497;-78
2022/02/02 10:41:47;;;;;;;11.10;9.57;;;;;;;5.08;63.82;98147.78;5045904;28;20110;-73
2022/02/02 10:44:18;;;;;;;12.10;8.90;;;;;;;5.07;64.19;98143.50;5045369;28;20132;-72
2022/02/02 10:46:55;;;;;;;8.20;7.13;;;;;;;5.01;63.72;98135.38;5051131;28;20045;-80
2022/02/02 10:49:29;;;;;;;10.82;8.75;;;;;;;5.00;63.93;98150.22;5045841;28;20155;-78
2022/02/02 10:52:03;;;;;;;11.18;9.93;;;;;;;4.93;63.80;98143.81;5044882;28;20051;-70
2022/02/02 10:54:36;;;;;;;10.73;9.23;;;;;;;4.97;64.03;98155.72;5048032;28;20045;-78
2022/02/02 10:57:15;;;;;;;12.88;10.55;;;;;;;4.98;63.90;98149.50;5047180;28;20052;-74
2022/02/02 11:07:56;;;;;;;10.10;8.93;;;;;;;5.09;63.73;98182.63;5000802;28;20180;-70
2022/02/02 11:10:23;;;;;;;10.55;9.25;;;;;;;5.22;64.01;98206.00;4998637;28;20046;-75
2022/02/02 11:12:55;;;;;;;10.32;8.55;;;;;;;5.27;63.30;98199.41;5002174;28;20137;-71
2022/02/02 11:15:32;;;;;;;11.85;10.68;;;;;;;5.25;63.45;98196.09;4999981;28;20133;-72
2022/02/02 11:18:08;;;;;;;14.10;10.25;;;;;;;5.22;64.04;98217.31;4998211;28;20128;-69
2022/02/02 11:20:38;;;;;;;12.48;9.07;;;;;;;5.11;64.25;98226.06;4997398;28;20064;-70
2022/02/02 11:23:06;;;;;;;14.93;12.48;;;;;;;4.99;64.60;98232.28;4999759;28;20084;-67
2022/02/02 11:25:36;;;;;;;15.02;13.30;;;;;;;4.77;65.08;98243.63;4999637;28;20120;-69
2022/02/02 11:28:08;;;;;;;15.70;14.15;;;;;;;4.67;65.76;98248.78;4999643;28;20085;-73
2022/02/02 11:30:41;;;;;;;14.57;12.93;;;;;;;4.61;66.03;98257.16;4999522;28;20133;-67
2022/02/02 11:33:24;;;;;;;18.88;15.05;;;;;;;4.57;66.64;98272.25;4998585;28;20061;-67
2022/02/02 11:35:55;;;;;;;17.35;15.50;;;;;;;4.50;66.67;98273.69;4997775;28;20088;-69
2022/02/02 11:38:51;;;;;;;16.80;13.98;;;;;;;4.49;67.09;98276.41;4996011;28;20042;-68
2022/02/02 11:41:51;;;;;;;19.05;14.63;;;;;;;4.46;67.02;98281.88;5037067;28;20056;-73
2022/02/02 11:44:39;;;;;;;18.38;14.50;;;;;;;4.47;67.55;98292.22;5038382;28;20124;-69
2022/02/02 11:47:12;;;;;;;16.92;14.20;;;;;;;4.57;67.22;98303.63;5039499;28;20155;-72
2022/02/02 11:49:53;;;;;;;18.80;14.45;;;;;;;4.67;67.58;98301.09;5038364;28;20049;-70
2022/02/02 11:52:41;;;;;;;25.20;18.15;;;;;;;4.72;67.09;98291.09;5040042;28;20056;-70
2022/02/02 11:55:43;;;;;;;25.95;16.55;;;;;;;4.79;67.14;98304.53;5037332;28;20144;-67
2022/02/02 11:58:15;;;;;;;19.65;16.30;;;;;;;4.70;66.45;98307.84;5037620;28;20080;-68
2022/02/02 12:01:01;;;;;;;25.33;19.00;;;;;;;4.67;66.51;98316.78;5038380;28;20051;-69
2022/02/02 12:09:18;;;;;;;27.65;20.15;;;;;;;4.66;67.07;98354.34;5034635;28;20552;-70
2022/02/02 12:19:02;;;;;;;25.35;20.15;;;;;;;4.68;66.86;98364.69;5038161;28;20132;-69
2022/02/02 12:57:09;;;;;;;30.45;21.77;;;;;;;4.82;66.81;98489.16;5033165;28;20053;-73
2022/02/02 13:02:21;;;;;;;23.52;18.25;;;;;;;4.88;66.55;98504.34;5031711;28;20045;-70
2022/02/02 13:04:55;;;;;;;26.13;19.50;;;;;;;4.92;66.06;98508.44;5032071;28;20124;-77
2022/02/02 13:07:27;;;;;;;26.47;18.27;;;;;;;4.95;65.68;98510.78;5032200;28;20050;-76
2022/02/02 13:09:55;;;;;;;26.33;20.45;;;;;;;4.93;65.79;98516.16;5029364;28;20657;-78
2022/02/02 13:12:34;;;;;;;26.17;20.02;;;;;;;4.95;65.45;98524.72;5029040;28;20132;-77
2022/02/02 13:17:58;;;;;;;26.80;20.05;;;;;;;4.98;64.98;98532.31;5021554;28;20136;-78
2022/02/02 13:20:42;;;;;;;25.55;18.98;;;;;;;4.99;64.25;98535.78;5023231;28;20049;-71
2022/02/02 13:23:17;;;;;;;27.50;20.75;;;;;;;4.98;64.33;98541.94;5022957;28;20079;-74
2022/02/02 13:25:45;;;;;;;;;;;;;;;5.16;63.61;98542.31;5022597;28;20137;-73
2022/02/02 13:28:13;;;;;;;24.75;18.48;;;;;;;4.89;63.75;98555.75;5034361;28;19931;-78
2022/02/02 13:30:46;;;;;;;28.08;20.30;;;;;;;4.88;63.95;98560.16;5046475;28;20053;-76
2022/02/02 13:33:18;;;;;;;27.92;20.92;;;;;;;4.86;63.94;98572.50;5044588;28;20354;-72
2022/02/02 13:35:59;;;;;;;23.15;19.83;;;;;;;4.84;64.22;98569.16;5045291;28;20091;-72
2022/02/02 13:38:59;;;;;;;26.58;20.20;;;;;;;4.90;64.27;98573.13;5042732;28;20064;-73
2022/02/02 13:44:39;;;;;;;26.60;22.75;;;;;;;4.91;64.33;98590.47;4985292;28;20094;-74
2022/02/02 13:50:24;;;;;;;20.45;17.90;;;;;;;4.96;64.05;98597.00;4986350;28;20147;-74
2022/02/02 13:52:54;;;;;;;26.05;18.80;;;;;;;5.02;63.89;98600.13;4984590;28;20046;-74
2022/02/02 13:55:40;;;;;;;19.55;15.38;;;;;;;5.09;63.94;98615.22;4981563;28;20505;-70
2022/02/02 14:00:59;;;;;;;23.73;18.83;;;;;;;5.09;62.71;98619.63;4978379;28;20050;-69
2022/02/02 14:09:07;;;;;;;20.10;16.20;;;;;;;5.15;62.46;98642.75;4987271;28;20050;-69
2022/02/02 14:31:10;;;;;;;30.67;22.05;;;;;;;4.95;63.52;98689.53;4962030;28;20057;-77
2022/02/02 14:33:38;;;;;;;42.92;29.20;;;;;;;4.92;63.82;98691.56;4969819;28;20609;-71
2022/02/02 14:36:08;;;;;;;37.20;26.60;;;;;;;4.87;64.21;98693.69;4969278;28;20405;-69
2022/02/02 14:38:42;;;;;;;32.50;22.17;;;;;;;4.87;63.99;98704.13;4965683;28;20129;-73
2022/02/02 14:41:30;;;;;;;39.25;25.25;;;;;;;4.86;64.06;98712.91;4961372;28;20635;-70
2022/02/02 14:44:03;;;;;;;26.92;20.35;;;;;;;4.86;64.18;98718.16;4960773;28;20047;-72
2022/02/02 14:46:35;;;;;;;25.98;22.33;;;;;;;4.82;64.13;98729.81;4959951;28;20085;-75
2022/02/02 14:49:07;;;;;;;24.48;16.42;;;;;;;4.81;64.20;98747.28;4962037;28;20783;-78
2022/02/02 14:54:40;;;;;;;30.25;21.77;;;;;;;4.81;64.01;98754.28;4955883;28;20063;-69
2022/02/02 15:06:13;;;;;;;22.65;16.45;;;;;;;4.75;64.60;98797.41;5038161;28;20087;-76
2022/02/02 15:23:45;;;;;;;29.55;20.85;;;;;;;4.65;65.00;98814.72;4977998;28;20093;-71
2022/02/02 15:26:01;;;;;;;30.45;22.77;;;;;;;4.53;65.21;98842.56;4997059;28;20602;-69
2022/02/02 15:28:22;;;;;;;25.45;21.33;;;;;;;4.53;65.01;98855.63;4996974;28;20042;-70
2022/02/02 15:30:57;;;;;;;26.65;21.88;;;;;;;4.52;64.83;98849.56;4998027;28;20046;-73
2022/02/02 15:33:33;;;;;;;39.92;27.73;;;;;;;4.53;65.10;98859.06;5002316;28;20101;-72
2022/02/02 15:36:17;;;;;;;34.47;26.15;;;;;;;4.50;64.73;98858.44;5005647;28;20050;-76
2022/02/02 15:38:47;;;;;;;30.50;22.25;;;;;;;4.47;65.05;98864.75;5002515;28;20085;-79
2022/02/02 15:41:21;;;;;;;30.15;22.48;;;;;;;4.52;64.90;98864.41;5008839;28;20046;-74
2022/02/02 15:44:43;;;;;;;27.88;20.92;;;;;;;4.52;64.83;98880.09;5005731;28;20268;-76
2022/02/02 15:55:25;;;;;;;22.52;18.70;;;;;;;4.42;64.60;98910.47;5069473;28;20059;-78
2022/02/02 15:58:12;;;;;;;22.73;18.77;;;;;;;4.37;64.85;98911.59;5066361;28;20106;-72
2022/02/02 16:03:25;;;;;;;37.42;24.63;;;;;;;4.35;64.99;98931.75;5053188;28;20101;-72
2022/02/02 16:05:59;;;;;;;35.50;22.77;;;;;;;4.39;64.87;98935.88;5041899;28;20083;-70
2022/02/02 16:08:28;;;;;;;28.42;21.27;;;;;;;4.36;64.90;98936.06;5042993;28;20045;-70
2022/02/02 16:11:05;;;;;;;32.47;23.25;;;;;;;4.39;64.79;98950.69;5043046;28;20621;-71
2022/02/02 16:13:41;;;;;;;48.28;32.13;;;;;;;4.42;64.74;98947.06;5041353;28;20053;-70
2022/02/02 16:16:25;;;;;;;41.08;24.40;;;;;;;4.42;64.65;98963.56;5041502;28;20045;-71
2022/02/02 16:18:57;;;;;;;30.48;18.50;;;;;;;4.46;64.35;98961.59;5038872;28;20044;-73
2022/02/02 16:33:02;;;;;;;28.88;20.88;;;;;;;4.44;63.39;99010.53;4987236;28;20185;-70
2022/02/02 16:38:18;;;;;;;36.83;21.85;;;;;;;4.39;63.40;99009.06;4988344;28;20050;-74
2022/02/02 16:40:49;;;;;;;33.22;21.92;;;;;;;4.37;63.52;99029.22;4988228;28;20050;-73
2022/02/02 16:43:15;;;;;;;26.23;16.65;;;;;;;4.39;63.51;99029.97;4991596;28;20536;-71
2022/02/02 16:45:46;;;;;;;26.33;16.88;;;;;;;4.43;63.59;99025.38;4994728;28;20057;-75
2022/02/02 16:48:14;;;;;;;31.85;19.63;;;;;;;4.40;63.57;99029.03;4989809;28;20133;-68
2022/02/02 16:50:45;;;;;;;27.65;17.85;;;;;;;4.39;63.58;99042.19;4992197;28;20049;-71
2022/02/02 16:53:23;;;;;;;34.35;20.58;;;;;;;4.39;63.43;99044.81;4995378;28;20046;-69
2022/02/02 16:55:57;;;;;;;32.33;19.35;;;;;;;4.45;63.33;99051.41;4992144;28;20085;-73
2022/02/02 17:31:46;;;;;;;22.20;14.68;;;;;;;4.11;62.36;99130.25;5011132;28;20116;-73
2022/02/02 17:34:21;;;;;;;28.02;16.73;;;;;;;4.10;62.44;99132.97;5002849;28;20046;-74
2022/02/02 17:36:56;;;;;;;28.80;14.40;;;;;;;4.15;62.19;99141.34;5000990;28;20050;-71
2022/02/02 17:39:33;;;;;;;28.33;16.15;;;;;;;4.07;62.33;99139.22;4999534;28;20038;-69
2022/02/02 17:42:26;;;;;;;23.33;17.75;;;;;;;4.04;62.17;99147.25;5010173;28;20053;-75
2022/02/02 17:45:10;;;;;;;47.40;30.58;;;;;;;4.12;62.07;99154.59;5001653;28;20123;-72
2022/02/02 18:13:12;;;;;;;15.05;10.15;;;;;;;4.13;60.46;99208.56;4914179;29;20182;-68
2022/02/02 18:21:07;;;;;;;20.08;12.13;;;;;;;3.96;60.76;99228.75;4916610;29;20061;-73
2022/02/02 18:23:43;;;;;;;27.20;14.88;;;;;;;3.93;60.78;99233.31;4923129;29;20220;-76
2022/02/02 18:26:17;;;;;;;22.85;14.20;;;;;;;3.95;60.72;99240.09;4898363;29;20070;-72
2022/02/02 18:28:51;;;;;;;31.77;15.95;;;;;;;3.94;60.84;99256.72;4919396;29;20063;-74
2022/02/02 18:31:34;;;;;;;22.58;15.30;;;;;;;3.95;60.71;99261.00;4931786;29;20325;-72
2022/02/02 18:34:14;;;;;;;20.33;13.95;;;;;;;4.00;60.60;99268.59;4928346;29;20052;-74
2022/02/02 18:36:50;;;;;;;17.73;14.00;;;;;;;3.98;60.44;99276.50;4980505;28;20110;-73
2022/02/02 18:45:27;;;;;;;19.40;11.90;;;;;;;4.02;60.24;99282.38;4972026;28;20043;-78
2022/02/02 18:48:11;;;;;;;18.83;11.30;;;;;;;4.07;59.84;99285.56;4967177;28;20054;-78
2022/02/02 18:51:04;;;;;;;16.80;11.23;;;;;;;4.02;59.49;99288.44;4968490;28;20055;-75